Time;durP1;ratioP1;P1;durP2;ratioP2;P2;SDS_P1;SDS_P2;PMS_P1;PMS_P2;Temp;Humidity;BMP_temperature;BMP_pressure;BME280_temperature;BME280_humidity;BME280_pressure;Samples;Min_cycle;Max_cycle;Signal;HPM_P1;HPM_P2
2022/10/08 00:01:11;;;;;;;8.50;4.00;;;;;;;8.43;87.37;99843.53;4899173;29;20415;-57
2022/10/08 00:03:39;;;;;;;11.65;4.47;;;;;;;8.47;87.27;99839.44;4898860;29;20043;-59
2022/10/08 00:06:10;;;;;;;8.70;3.85;;;;;;;8.58;87.32;99836.91;4899132;29;20534;-58
2022/10/08 00:08:38;;;;;;;10.52;4.03;;;;;;;8.67;86.94;99834.03;4897823;29;20081;-59
2022/10/08 00:11:07;;;;;;;13.60;4.40;;;;;;;8.69;86.77;99837.28;4898530;29;20354;-58
2022/10/08 00:13:40;;;;;;;8.05;4.38;;;;;;;8.75;86.71;99839.88;4898831;29;20044;-58
2022/10/08 00:16:12;;;;;;;10.25;3.78;;;;;;;8.80;85.70;99842.69;4898975;29;20055;-59
2022/10/08 00:18:39;;;;;;;6.35;3.30;;;;;;;8.85;86.01;99848.16;4898405;29;20514;-58
2022/10/08 00:21:13;;;;;;;11.57;5.13;;;;;;;8.90;85.80;99844.84;4898881;29;20506;-58
2022/10/08 00:23:40;;;;;;;8.35;3.47;;;;;;;8.99;85.24;99848.03;4898715;29;20367;-58
2022/10/08 00:26:06;;;;;;;7.68;3.65;;;;;;;9.02;85.25;99852.88;4898360;29;20045;-58
2022/10/08 00:28:35;;;;;;;11.43;4.00;;;;;;;9.07;84.84;99850.41;4898651;29;20057;-58
2022/10/08 00:31:06;;;;;;;8.18;4.10;;;;;;;9.13;84.92;99846.09;4897270;29;20056;-58
2022/10/08 00:33:33;;;;;;;;;;;;;;;9.18;85.09;99839.13;4897505;29;20107;-56
2022/10/08 00:36:16;;;;;;;8.35;3.65;;;;;;;9.21;84.48;99838.69;4905438;29;19926;-57
2022/10/08 00:38:42;;;;;;;7.93;3.70;;;;;;;9.22;84.44;99834.22;4917362;29;20099;-56
2022/10/08 00:41:16;;;;;;;11.82;3.33;;;;;;;9.24;84.52;99850.69;4915706;29;20064;-57
2022/10/08 00:43:47;;;;;;;10.13;4.07;;;;;;;9.27;84.20;99847.59;4917002;29;20525;-57
2022/10/08 00:46:42;;;;;;;6.38;3.80;;;;;;;9.27;83.68;99843.13;4917380;29;20091;-58
2022/10/08 00:49:09;;;;;;;8.23;3.80;;;;;;;9.30;83.45;99847.97;4930271;29;20645;-58
2022/10/08 00:51:34;;;;;;;9.55;3.92;;;;;;;9.32;83.99;99845.94;4916935;29;20056;-57
2022/10/08 00:54:01;;;;;;;14.05;4.40;;;;;;;9.36;83.15;99843.66;4915531;29;20506;-58
2022/10/08 00:56:30;;;;;;;10.82;3.83;;;;;;;9.38;83.03;99841.56;4915807;29;20204;-58
2022/10/08 00:58:56;;;;;;;9.32;3.97;;;;;;;9.41;83.68;99848.28;4915712;29;20043;-58
2022/10/08 01:01:22;;;;;;;10.77;3.80;;;;;;;9.38;83.59;99846.88;4916856;29;20052;-57
2022/10/08 01:03:47;;;;;;;8.20;3.63;;;;;;;9.40;83.31;99850.13;4915469;29;20042;-58
2022/10/08 01:06:45;;;;;;;8.65;3.30;;;;;;;9.42;83.51;99848.06;4915586;29;20072;-58
2022/10/08 01:09:18;;;;;;;10.32;3.83;;;;;;;9.33;83.78;99839.59;4931289;29;20547;-57
2022/10/08 01:11:52;;;;;;;14.75;3.67;;;;;;;9.41;83.22;99846.47;4930957;29;20114;-58
2022/10/08 01:14:24;;;;;;;10.02;3.60;;;;;;;9.40;83.60;99838.72;4915297;29;20076;-58
2022/10/08 01:16:57;;;;;;;8.75;3.67;;;;;;;9.36;83.92;99846.31;4915190;29;20127;-58
2022/10/08 01:19:30;;;;;;;12.95;4.00;;;;;;;9.35;83.86;99843.84;4916488;29;20532;-59
2022/10/08 01:22:34;;;;;;;9.98;4.22;;;;;;;9.40;83.30;99844.81;4916195;29;20052;-56
2022/10/08 01:25:32;;;;;;;7.90;3.63;;;;;;;9.38;83.03;99838.94;4857706;29;20533;-58
2022/10/08 01:28:14;;;;;;;8.45;3.70;;;;;;;9.34;83.16;99840.41;4896697;29;20065;-57
2022/10/08 01:30:45;;;;;;;8.75;3.72;;;;;;;9.43;83.59;99847.03;4896031;29;20063;-58
2022/10/08 01:33:21;;;;;;;9.07;3.58;;;;;;;9.40;83.57;99844.81;4897400;29;20042;-59
2022/10/08 01:35:50;;;;;;;10.95;3.63;;;;;;;9.42;82.71;99856.00;4895844;29;20056;-58
2022/10/08 01:38:18;;;;;;;7.75;3.13;;;;;;;9.45;83.15;99846.81;4880382;29;20498;-57
2022/10/08 01:40:45;;;;;;;6.53;3.45;;;;;;;9.49;83.25;99850.66;4895918;29;20055;-58
2022/10/08 01:43:13;;;;;;;10.23;3.50;;;;;;;9.51;83.00;99845.94;4895709;29;20044;-58
2022/10/08 01:45:44;;;;;;;5.05;2.95;;;;;;;9.51;82.82;99845.94;4897094;29;20053;-58
2022/10/08 01:48:14;;;;;;;;;;;;;;;9.49;83.00;99848.00;4897583;29;20092;-58
2022/10/08 01:50:54;;;;;;;8.00;3.40;;;;;;;9.52;83.04;99845.72;4895690;29;19928;-59
2022/10/08 01:53:23;;;;;;;10.00;3.22;;;;;;;9.52;82.55;99845.72;4876983;29;20440;-60
2022/10/08 01:55:52;;;;;;;7.68;3.67;;;;;;;9.53;82.56;99847.34;4878506;29;20060;-59
2022/10/08 01:58:26;;;;;;;7.85;3.63;;;;;;;9.55;82.58;99847.13;4892680;29;20089;-57
2022/10/08 02:00:53;;;;;;;9.63;3.45;;;;;;;9.56;82.59;99851.41;4877534;29;20100;-59
2022/10/08 02:03:18;;;;;;;9.68;3.83;;;;;;;9.55;83.28;99850.56;4892490;29;20044;-59
2022/10/08 02:05:49;;;;;;;8.35;3.53;;;;;;;9.58;82.44;99851.97;4878325;29;20061;-59
2022/10/08 02:08:14;;;;;;;;;;;;;;;9.59;82.26;99852.78;4892580;29;20081;-58
2022/10/08 02:10:40;;;;;;;10.75;3.17;;;;;;;9.58;82.40;99857.28;4894130;29;19973;-58
2022/10/08 02:13:07;;;;;;;9.35;3.95;;;;;;;9.52;83.34;99850.22;4895683;29;20295;-58
2022/10/08 02:15:59;;;;;;;10.70;3.80;;;;;;;9.52;82.84;99858.16;4895272;29;20107;-58
2022/10/08 02:18:53;;;;;;;7.95;3.65;;;;;;;9.48;82.56;99857.78;4895215;29;20044;-57
2022/10/08 02:21:39;;;;;;;9.52;3.30;;;;;;;9.51;83.26;99869.78;4884812;29;20104;-58
2022/10/08 02:24:17;;;;;;;8.93;3.80;;;;;;;9.51;82.97;99865.28;4896417;29;20045;-58
2022/10/08 02:26:49;;;;;;;12.80;4.43;;;;;;;9.59;82.67;99869.50;4911058;29;20043;-58
2022/10/08 02:29:29;;;;;;;8.65;3.53;;;;;;;9.65;82.56;99868.63;4910743;29;20052;-59
2022/10/08 02:31:58;;;;;;;6.38;3.42;;;;;;;9.64;81.72;99866.97;4910792;29;20067;-58
2022/10/08 02:34:36;;;;;;;12.23;3.50;;;;;;;9.55;82.44;99850.56;4911015;29;20127;-57
2022/10/08 02:37:15;;;;;;;10.65;3.10;;;;;;;9.58;82.42;99856.47;4895218;29;20060;-58
2022/10/08 02:39:45;;;;;;;9.77;3.30;;;;;;;9.60;82.09;99863.16;4896510;29;20049;-59
2022/10/08 02:42:13;;;;;;;7.57;3.20;;;;;;;9.53;81.81;99857.13;4895316;29;20044;-58
2022/10/08 02:44:42;;;;;;;9.95;3.20;;;;;;;9.50;82.28;99842.50;4879463;29;20049;-58
2022/10/08 02:47:11;;;;;;;10.73;3.40;;;;;;;9.50;82.74;99850.44;4910608;29;20044;-58
2022/10/08 02:49:42;;;;;;;11.02;3.30;;;;;;;9.55;82.39;99855.06;4894885;29;20053;-57
2022/10/08 02:52:09;;;;;;;9.55;3.40;;;;;;;9.55;82.56;99849.78;4879319;29;20041;-59
2022/10/08 02:54:38;;;;;;;8.82;2.90;;;;;;;9.58;82.23;99851.97;4896049;29;20071;-58
2022/10/08 02:57:17;;;;;;;10.13;3.50;;;;;;;9.58;82.59;99857.28;4910485;29;20076;-57
2022/10/08 02:59:44;;;;;;;8.23;3.85;;;;;;;9.57;82.39;99854.84;4896306;29;20056;-58
2022/10/08 03:02:16;;;;;;;8.48;3.33;;;;;;;9.59;82.59;99853.63;4894876;29;20566;-57
2022/10/08 03:05:05;;;;;;;10.52;3.60;;;;;;;9.61;81.73;99854.19;4879403;29;20060;-58
2022/10/08 03:07:31;;;;;;;11.50;3.42;;;;;;;9.65;82.42;99846.63;4894877;29;20076;-56
2022/10/08 03:09:58;;;;;;;9.88;3.20;;;;;;;9.67;81.82;99855.94;4896153;29;20529;-57
2022/10/08 03:12:27;;;;;;;6.88;3.20;;;;;;;9.69;81.77;99853.09;4895688;29;20052;-58
2022/10/08 03:14:52;;;;;;;13.35;3.63;;;;;;;9.67;81.65;99850.66;4898742;29;20084;-58
2022/10/08 03:17:23;;;;;;;7.55;3.78;;;;;;;9.67;81.72;99845.34;4914545;29;20123;-59
2022/10/08 03:19:48;;;;;;;;;;;;;;;9.66;81.68;99848.25;4914928;29;20044;-58
2022/10/08 03:22:14;;;;;;;7.43;3.50;;;;;;;9.64;82.09;99845.00;4898780;29;20390;-59
2022/10/08 03:24:40;;;;;;;6.82;3.03;;;;;;;9.67;82.07;99848.00;4899696;29;20060;-58
2022/10/08 03:27:05;;;;;;;7.07;2.78;;;;;;;9.67;82.67;99845.34;4899906;29;20451;-57
2022/10/08 03:29:31;;;;;;;12.90;3.60;;;;;;;9.69;81.86;99847.81;4899445;29;20052;-58
2022/10/08 03:31:56;;;;;;;12.40;4.03;;;;;;;9.69;81.98;99855.75;4899889;29;20053;-57
2022/10/08 03:34:24;;;;;;;7.80;3.35;;;;;;;9.67;81.77;99852.50;4914049;29;20044;-59
2022/10/08 03:36:49;;;;;;;11.38;3.20;;;;;;;9.62;81.79;99854.97;4913117;29;20066;-58
2022/10/08 03:39:15;;;;;;;11.25;3.80;;;;;;;9.62;82.50;99858.47;4918308;29;20048;-58
2022/10/08 03:41:41;;;;;;;7.95;3.80;;;;;;;9.66;82.14;99861.47;4885695;29;20048;-58
2022/10/08 03:44:08;;;;;;;7.30;3.20;;;;;;;9.65;81.62;99860.66;4918184;29;20066;-58
2022/10/08 03:46:33;;;;;;;8.55;3.35;;;;;;;9.67;81.61;99855.94;4918592;29;20043;-58
2022/10/08 03:48:59;;;;;;;10.65;3.42;;;;;;;9.69;81.27;99859.19;4918001;29;20040;-58
2022/10/08 03:51:25;;;;;;;9.73;3.40;;;;;;;9.74;81.67;99853.25;4917939;29;20052;-59
2022/10/08 03:53:50;;;;;;;9.95;3.40;;;;;;;9.75;81.28;99854.88;4918080;29;20068;-58
2022/10/08 03:56:19;;;;;;;10.60;3.45;;;;;;;9.76;81.28;99852.00;4918332;29;20060;-59
2022/10/08 03:58:45;;;;;;;9.45;3.30;;;;;;;9.76;81.32;99851.19;4901130;29;20044;-58
2022/10/08 04:01:13;;;;;;;10.38;3.40;;;;;;;9.82;81.22;99855.59;4918290;29;20443;-58
2022/10/08 04:03:39;;;;;;;8.77;3.50;;;;;;;9.81;80.84;99858.47;4918066;29;20051;-58
2022/10/08 04:06:05;;;;;;;9.77;3.55;;;;;;;9.82;81.40;99857.44;4901060;29;20056;-58
2022/10/08 04:08:32;;;;;;;7.28;3.30;;;;;;;9.86;81.35;99855.97;4900897;29;20050;-60
2022/10/08 04:11:02;;;;;;;9.93;3.60;;;;;;;9.85;80.67;99859.63;4900727;29;20059;-59
2022/10/08 04:13:28;;;;;;;7.13;3.13;;;;;;;9.92;80.37;99861.19;4917727;29;20381;-58
2022/10/08 04:16:00;;;;;;;8.27;3.95;;;;;;;9.92;80.56;99866.50;4916638;29;20052;-58
2022/10/08 04:18:25;;;;;;;10.50;3.30;;;;;;;9.85;81.36;99854.34;4917910;29;20067;-58
2022/10/08 04:20:56;;;;;;;8.65;3.65;;;;;;;9.88;80.89;99862.66;4900632;29;20225;-60
2022/10/08 04:23:21;;;;;;;6.80;3.35;;;;;;;9.92;80.17;99863.84;4884726;29;20071;-59
2022/10/08 04:25:48;;;;;;;7.43;3.22;;;;;;;10.01;80.56;99861.69;4884339;29;20492;-58
2022/10/08 04:28:14;;;;;;;11.00;3.28;;;;;;;10.05;80.35;99862.88;4917672;29;20056;-58
2022/10/08 04:30:39;;;;;;;7.18;3.10;;;;;;;10.10;79.84;99865.66;4900457;29;20469;-58
2022/10/08 04:33:05;;;;;;;8.50;3.40;;;;;;;10.11;79.72;99861.97;4900634;29;20043;-59
2022/10/08 04:35:31;;;;;;;8.13;3.33;;;;;;;10.08;79.21;99867.72;4917139;29;20200;-58
2022/10/08 04:37:56;;;;;;;9.07;3.10;;;;;;;10.12;79.83;99871.56;4917180;29;20074;-57
2022/10/08 04:40:22;;;;;;;9.60;3.55;;;;;;;10.15;79.55;99872.97;4917217;29;20054;-58
2022/10/08 04:42:50;;;;;;;7.82;3.83;;;;;;;10.09;79.26;99868.53;4916705;29;20176;-60
2022/10/08 04:45:16;;;;;;;10.38;3.67;;;;;;;10.09;79.66;99874.66;4899942;29;20533;-58
2022/10/08 04:47:42;;;;;;;5.45;3.17;;;;;;;10.14;79.46;99877.41;4916924;29;20081;-59
2022/10/08 04:50:08;;;;;;;9.25;3.30;;;;;;;10.15;79.69;99873.75;4916811;29;20107;-59
2022/10/08 04:52:33;;;;;;;6.50;3.28;;;;;;;10.16;79.74;99870.06;4899791;29;20466;-58
2022/10/08 04:54:59;;;;;;;11.85;3.60;;;;;;;10.19;79.51;99871.47;4915273;29;20055;-59
2022/10/08 04:57:25;;;;;;;9.02;3.33;;;;;;;10.13;79.22;99870.50;4916584;29;20040;-59
2022/10/08 04:59:50;;;;;;;9.52;3.63;;;;;;;10.16;79.25;99883.31;4916651;29;20119;-60
2022/10/08 05:02:16;;;;;;;7.25;3.20;;;;;;;10.20;78.96;99881.81;4899805;29;20044;-58
2022/10/08 05:04:42;;;;;;;6.53;3.10;;;;;;;10.20;78.79;99881.03;4899654;29;20131;-59
2022/10/08 05:07:07;;;;;;;4.80;2.97;;;;;;;10.23;78.72;99878.75;4916455;29;20108;-59
2022/10/08 05:09:33;;;;;;;8.65;3.00;;;;;;;10.31;79.12;99887.44;4914981;29;20076;-58
2022/10/08 05:11:59;;;;;;;8.18;3.42;;;;;;;10.30;78.27;99880.53;4916236;29;20043;-59
2022/10/08 05:14:24;;;;;;;8.65;3.20;;;;;;;10.31;78.89;99876.84;4916316;29;20138;-59
2022/10/08 05:16:50;;;;;;;11.27;3.33;;;;;;;10.33;78.60;99883.56;4899494;29;20090;-59
2022/10/08 05:19:16;;;;;;;5.78;2.78;;;;;;;10.37;78.66;99894.50;4915417;29;20052;-58
2022/10/08 05:21:41;;;;;;;7.50;3.33;;;;;;;10.41;78.71;99887.72;4916471;29;20528;-58
2022/10/08 05:24:09;;;;;;;7.97;3.65;;;;;;;10.43;78.18;99889.13;4916308;29;20590;-59
2022/10/08 05:26:36;;;;;;;6.53;2.95;;;;;;;10.43;77.61;99885.66;4884193;29;20048;-61
2022/10/08 05:29:02;;;;;;;8.32;4.25;;;;;;;10.45;77.82;99891.56;4899357;29;20044;-59
2022/10/08 05:31:29;;;;;;;5.82;3.47;;;;;;;10.43;78.37;99886.47;4916010;29;20169;-58
2022/10/08 05:33:55;;;;;;;6.88;2.65;;;;;;;10.50;78.02;99899.66;4916128;29;20502;-57
2022/10/08 05:36:23;;;;;;;8.45;3.60;;;;;;;10.51;77.69;99897.81;4914482;29;20062;-59
2022/10/08 05:38:49;;;;;;;7.18;3.58;;;;;;;10.51;78.10;99901.25;4916330;29;20126;-59
2022/10/08 05:41:16;;;;;;;13.60;3.08;;;;;;;10.48;78.09;99904.38;4916393;29;20574;-59
2022/10/08 05:43:42;;;;;;;6.88;3.65;;;;;;;10.52;77.77;99900.22;4883595;29;20039;-59
2022/10/08 05:46:08;;;;;;;10.95;3.55;;;;;;;10.54;78.01;99898.16;4883406;29;20047;-57
2022/10/08 05:48:36;;;;;;;5.75;3.40;;;;;;;10.59;77.62;99902.78;4915826;29;20048;-58
2022/10/08 05:51:05;;;;;;;7.53;3.30;;;;;;;10.70;77.39;99896.72;4915942;29;20103;-59
2022/10/08 05:53:33;;;;;;;7.82;3.45;;;;;;;10.74;77.15;99897.09;4915541;29;20455;-58
2022/10/08 05:56:00;;;;;;;7.65;3.05;;;;;;;10.73;76.43;99900.75;4898773;29;20134;-58
2022/10/08 05:58:30;;;;;;;6.32;3.33;;;;;;;10.68;76.44;99899.59;4914347;29;20040;-60
2022/10/08 06:01:00;;;;;;;11.03;4.03;;;;;;;10.74;76.99;99899.75;4915752;29;20497;-58
2022/10/08 06:03:26;;;;;;;;;;;;;;;10.82;76.98;99904.69;4916194;29;20043;-59
2022/10/08 06:05:52;;;;;;;8.45;3.15;;;;;;;10.93;76.52;99906.59;4898697;29;20400;-59
2022/10/08 06:08:17;;;;;;;9.60;2.95;;;;;;;11.07;75.82;99896.59;4915119;29;20528;-60
2022/10/08 06:10:53;;;;;;;8.80;3.80;;;;;;;11.20;75.61;99895.56;4914805;29;20048;-58
2022/10/08 06:13:20;;;;;;;8.93;2.88;;;;;;;11.31;74.88;99897.44;4915461;29;20421;-59
2022/10/08 06:15:59;;;;;;;9.23;3.38;;;;;;;11.33;74.41;99898.00;4915640;29;20059;-58
2022/10/08 06:18:27;;;;;;;8.80;3.05;;;;;;;11.43;74.38;99890.28;4915721;29;20048;-60
2022/10/08 06:20:53;;;;;;;8.07;2.67;;;;;;;11.49;74.14;99894.66;4915731;29;20091;-57
2022/10/08 06:23:21;;;;;;;5.55;3.03;;;;;;;11.48;73.72;99901.03;4915518;29;20135;-58
2022/10/08 06:25:47;;;;;;;8.10;3.60;;;;;;;11.53;73.97;99901.16;4915441;29;20052;-59
2022/10/08 06:28:14;;;;;;;9.70;2.92;;;;;;;11.64;73.43;99904.00;4915560;29;20092;-60
2022/10/08 06:30:40;;;;;;;7.03;3.30;;;;;;;11.66;73.10;99910.72;4915515;29;20063;-59
2022/10/08 06:33:09;;;;;;;7.53;2.88;;;;;;;11.72;73.16;99903.66;4915268;29;20051;-58
2022/10/08 06:35:36;;;;;;;8.65;3.30;;;;;;;11.80;72.67;99908.63;4897931;29;20052;-56
2022/10/08 06:38:03;;;;;;;11.70;3.53;;;;;;;11.91;72.70;99915.00;4914001;29;20052;-59
2022/10/08 06:40:37;;;;;;;6.45;3.13;;;;;;;11.96;72.03;99909.78;4898372;29;20045;-57
2022/10/08 06:43:11;;;;;;;9.25;3.55;;;;;;;11.99;71.96;99910.13;4915505;29;20561;-58
2022/10/08 06:45:38;;;;;;;8.25;3.25;;;;;;;12.09;71.85;99909.56;4915455;29;20059;-59
2022/10/08 06:48:04;;;;;;;5.18;2.70;;;;;;;12.21;70.91;99914.84;4918767;29;20042;-58
2022/10/08 06:50:29;;;;;;;7.30;3.10;;;;;;;12.23;70.95;99910.06;4920948;29;20437;-58
2022/10/08 06:52:55;;;;;;;11.63;3.30;;;;;;;12.35;70.28;99918.03;4911822;29;20516;-59
2022/10/08 06:55:21;;;;;;;8.05;3.20;;;;;;;12.37;70.14;99905.31;4920903;29;20127;-60
2022/10/08 06:57:47;;;;;;;5.80;2.97;;;;;;;12.39;69.69;99903.22;4921310;29;20135;-61
2022/10/08 07:00:13;;;;;;;6.72;3.03;;;;;;;12.35;69.74;99902.06;4904338;29;20044;-59
2022/10/08 07:02:38;;;;;;;11.38;3.45;;;;;;;12.25;70.11;99897.38;4921471;29;20135;-60
2022/10/08 07:05:06;;;;;;;10.07;3.03;;;;;;;12.20;70.30;99902.56;4921290;29;20067;-60
2022/10/08 07:07:31;;;;;;;7.30;2.70;;;;;;;12.20;70.31;99891.94;4919870;29;20458;-61
2022/10/08 07:09:57;;;;;;;8.23;3.25;;;;;;;12.22;69.46;99900.50;4919661;29;20044;-60
2022/10/08 07:12:23;;;;;;;12.07;3.28;;;;;;;12.20;69.23;99894.59;4920549;29;20122;-59
2022/10/08 07:14:48;;;;;;;7.38;2.88;;;;;;;12.27;69.00;99901.41;4919781;29;20040;-57
2022/10/08 07:17:14;;;;;;;8.63;2.88;;;;;;;12.36;68.83;99901.06;4921235;29;20047;-60
2022/10/08 07:19:39;;;;;;;12.60;2.75;;;;;;;12.35;67.97;99904.72;4921208;29;20051;-59
2022/10/08 07:22:05;;;;;;;6.80;2.55;;;;;;;12.33;67.98;99896.19;4921293;29;20048;-60
2022/10/08 07:24:31;;;;;;;9.20;2.85;;;;;;;12.38;68.35;99896.28;4904117;29;20043;-60
2022/10/08 07:26:59;;;;;;;6.03;2.75;;;;;;;12.39;67.93;99896.06;4920987;29;20047;-58
2022/10/08 07:29:25;;;;;;;8.65;3.20;;;;;;;12.41;67.69;99888.66;4903776;29;20502;-60
2022/10/08 07:31:50;;;;;;;11.32;3.70;;;;;;;12.49;67.25;99892.78;4920995;29;20044;-59
2022/10/08 07:34:16;;;;;;;6.57;2.83;;;;;;;12.61;67.08;99890.88;4911646;29;20048;-59
2022/10/08 07:36:42;;;;;;;8.27;2.97;;;;;;;12.67;66.32;99891.78;4920515;29;20142;-59
2022/10/08 07:39:12;;;;;;;6.47;3.22;;;;;;;12.68;66.99;99882.78;4921277;29;20040;-57
2022/10/08 07:41:37;;;;;;;8.60;3.08;;;;;;;12.68;66.59;99880.09;4921157;29;20055;-58
2022/10/08 07:44:05;;;;;;;6.45;2.92;;;;;;;12.72;66.22;99886.56;4920819;29;20050;-58
2022/10/08 07:46:41;;;;;;;11.90;3.25;;;;;;;12.71;66.60;99882.28;4921064;29;20602;-59
2022/10/08 07:49:07;;;;;;;7.30;2.80;;;;;;;12.77;67.00;99884.00;4904048;29;20054;-59
2022/10/08 07:51:33;;;;;;;6.45;3.10;;;;;;;12.75;66.29;99879.94;4921096;29;20123;-58
2022/10/08 07:54:01;;;;;;;10.10;3.10;;;;;;;12.79;66.20;99881.88;4888819;29;20044;-59
2022/10/08 07:56:26;;;;;;;5.57;2.70;;;;;;;12.85;65.88;99880.94;4921110;29;20048;-58
2022/10/08 07:58:52;;;;;;;9.27;3.10;;;;;;;12.85;66.15;99880.13;4920342;29;20047;-60
2022/10/08 08:01:20;;;;;;;8.75;2.90;;;;;;;12.89;65.89;99876.75;4918097;29;20505;-56
2022/10/08 08:03:52;;;;;;;9.52;2.92;;;;;;;12.91;65.33;99872.00;4916692;29;20251;-56
2022/10/08 08:06:18;;;;;;;6.75;2.85;;;;;;;12.92;65.14;99865.63;4918220;29;20042;-57
2022/10/08 08:08:44;;;;;;;5.97;3.30;;;;;;;12.93;64.70;99861.91;4918187;29;20043;-56
2022/10/08 08:11:12;;;;;;;6.63;2.60;;;;;;;13.00;64.90;99868.91;4917983;29;20048;-58
2022/10/08 08:13:39;;;;;;;8.23;2.72;;;;;;;13.07;64.34;99864.25;4912964;29;20045;-58
2022/10/08 08:16:11;;;;;;;7.00;2.72;;;;;;;13.11;64.54;99862.72;4917958;29;20059;-58
2022/10/08 08:18:40;;;;;;;7.63;2.40;;;;;;;13.15;64.21;99851.34;4917472;29;20047;-58
2022/10/08 08:21:11;;;;;;;9.02;2.67;;;;;;;13.23;63.67;99855.44;4918270;29;20052;-58
2022/10/08 08:23:39;;;;;;;6.22;2.75;;;;;;;13.27;63.59;99850.50;4917494;29;20059;-60
2022/10/08 08:26:08;;;;;;;7.05;2.45;;;;;;;13.43;62.41;99856.84;4917515;29;20055;-59
2022/10/08 08:28:33;;;;;;;8.30;2.60;;;;;;;13.69;61.93;99842.03;4899784;29;20075;-60
2022/10/08 08:31:16;;;;;;;10.73;2.67;;;;;;;13.90;59.92;99848.41;4895994;29;20056;-58
2022/10/08 08:33:47;;;;;;;3.53;2.30;;;;;;;13.99;58.87;99838.94;4916902;29;20040;-56
2022/10/08 08:36:12;;;;;;;5.68;2.25;;;;;;;13.94;58.31;99852.19;4900408;29;20204;-60
2022/10/08 08:38:38;;;;;;;9.52;2.85;;;;;;;13.93;58.38;99843.38;4917765;29;20134;-60
2022/10/08 08:41:35;;;;;;;8.75;2.67;;;;;;;13.89;57.75;99844.94;4899884;29;20316;-59
2022/10/08 08:44:09;;;;;;;6.85;2.70;;;;;;;13.82;57.63;99844.31;4916307;29;20128;-60
2022/10/08 08:46:39;;;;;;;6.72;2.78;;;;;;;13.76;57.88;99839.97;4899823;29;20079;-60
2022/10/08 08:49:24;;;;;;;;;;;;;;;13.70;58.21;99836.44;4900760;29;20494;-60
2022/10/08 08:51:51;;;;;;;8.10;2.60;;;;;;;13.69;57.77;99839.34;4916727;29;20312;-60
2022/10/08 08:54:17;;;;;;;7.65;2.70;;;;;;;13.79;58.17;99839.47;4899980;29;20048;-61
2022/10/08 08:56:43;;;;;;;8.95;2.80;;;;;;;13.92;57.26;99830.31;4899225;29;20044;-64
2022/10/08 08:59:28;;;;;;;4.80;2.10;;;;;;;14.12;57.40;99824.41;4916911;29;20123;-60
2022/10/08 09:01:58;;;;;;;7.03;2.40;;;;;;;14.25;57.26;99824.81;4900397;29;20040;-61
2022/10/08 09:04:39;;;;;;;6.65;2.60;;;;;;;14.40;57.07;99820.72;4917592;29;20076;-62
2022/10/08 09:07:07;;;;;;;9.48;3.17;;;;;;;14.51;56.70;99817.91;4917006;29;20084;-60
2022/10/08 09:09:42;;;;;;;6.95;2.50;;;;;;;14.75;55.65;99825.59;4899595;29;20056;-60
2022/10/08 09:12:20;;;;;;;9.93;3.47;;;;;;;14.89;55.02;99816.13;4899768;29;20150;-57
2022/10/08 09:14:53;;;;;;;7.10;2.63;;;;;;;14.96;54.55;99814.03;4855089;29;20130;-59
2022/10/08 09:17:26;;;;;;;5.97;2.70;;;;;;;14.94;53.98;99818.81;4900090;29;20084;-57
2022/10/08 09:19:52;;;;;;;6.90;2.60;;;;;;;14.87;53.68;99809.41;4916736;29;20051;-59
2022/10/08 09:22:26;;;;;;;5.97;2.60;;;;;;;14.88;54.19;99808.34;4916477;29;20059;-60
2022/10/08 09:24:57;;;;;;;7.10;2.65;;;;;;;14.91;53.47;99803.31;4916450;29;20048;-59
2022/10/08 09:27:23;;;;;;;8.45;2.97;;;;;;;14.85;53.36;99792.84;4916292;29;20067;-60
2022/10/08 09:29:48;;;;;;;8.85;2.22;;;;;;;14.81;52.70;99792.56;4916176;29;20095;-59
2022/10/08 09:32:16;;;;;;;6.22;2.25;;;;;;;14.80;52.63;99784.81;4899577;29;20537;-60
2022/10/08 09:34:42;;;;;;;8.88;2.95;;;;;;;14.81;52.54;99791.75;4883540;29;20059;-58
2022/10/08 09:37:21;;;;;;;10.65;2.70;;;;;;;14.79;53.07;99784.00;4899207;29;20068;-69
2022/10/08 09:40:06;;;;;;;7.55;2.70;;;;;;;14.70;52.91;99789.00;4915977;29;20526;-68
2022/10/08 09:42:32;;;;;;;6.80;2.58;;;;;;;14.64;53.29;99773.19;4916427;29;20059;-67
2022/10/08 09:45:02;;;;;;;8.65;3.17;;;;;;;14.57;53.59;99777.97;4883162;29;20421;-68
2022/10/08 09:47:32;;;;;;;6.68;2.72;;;;;;;14.47;53.47;99771.44;4915940;29;20044;-68
2022/10/08 09:50:02;;;;;;;6.60;2.90;;;;;;;14.47;54.22;99767.94;4916153;29;20058;-68
2022/10/08 09:52:29;;;;;;;5.90;2.80;;;;;;;14.42;54.41;99759.94;4883463;29;20048;-68
2022/10/08 09:55:17;;;;;;;9.02;2.85;;;;;;;14.34;54.55;99761.19;4915923;29;20540;-70
2022/10/08 09:57:46;;;;;;;7.35;2.90;;;;;;;14.29;55.11;99763.78;4915737;29;20051;-66
2022/10/08 10:00:24;;;;;;;7.75;2.88;;;;;;;14.34;54.81;99763.03;4915771;29;20095;-66
2022/10/08 10:02:54;;;;;;;8.20;3.10;;;;;;;14.28;55.11;99763.00;4916333;29;20044;-64
2022/10/08 10:05:22;;;;;;;6.60;2.80;;;;;;;14.24;55.17;99753.09;4899466;29;20051;-69
2022/10/08 10:07:48;;;;;;;8.45;2.83;;;;;;;14.32;54.62;99761.44;4916019;29;20048;-61
2022/10/08 10:10:20;;;;;;;7.95;2.85;;;;;;;14.38;54.61;99740.94;4914935;29;20048;-61
2022/10/08 10:13:08;;;;;;;8.27;2.90;;;;;;;14.44;54.05;99742.63;4916195;29;20048;-60
2022/10/08 10:15:58;;;;;;;9.43;2.60;;;;;;;14.47;53.66;99728.78;4915172;29;20055;-62
2022/10/08 10:18:38;;;;;;;6.38;2.55;;;;;;;14.48;53.22;99727.69;4898872;29;20638;-61
2022/10/08 10:21:14;;;;;;;7.95;2.53;;;;;;;14.48;52.95;99733.03;4899319;29;20040;-61
2022/10/08 10:23:46;;;;;;;12.55;4.32;;;;;;;14.42;53.45;99719.91;4898337;29;20422;-62
2022/10/08 10:26:28;;;;;;;8.85;2.83;;;;;;;14.42;53.19;99720.72;4882748;29;20058;-60
2022/10/08 10:28:58;;;;;;;5.45;2.65;;;;;;;14.40;53.32;99708.69;4898538;29;20050;-62
2022/10/08 10:31:37;;;;;;;8.65;2.63;;;;;;;14.41;53.54;99713.78;4898342;29;20532;-62
2022/10/08 10:34:14;;;;;;;7.93;2.47;;;;;;;14.36;53.53;99703.06;4915525;29;20036;-63
2022/10/08 10:37:01;;;;;;;6.30;2.40;;;;;;;14.35;53.10;99701.44;4913917;29;20082;-61
2022/10/08 10:39:38;;;;;;;11.10;3.17;;;;;;;14.31;53.10;99701.16;4898357;29;20135;-61
2022/10/08 10:42:18;;;;;;;5.05;2.55;;;;;;;14.31;53.76;99698.50;4882974;29;20047;-61
2022/10/08 10:44:53;;;;;;;8.93;2.67;;;;;;;14.25;53.35;99702.16;4915490;29;20076;-59
2022/10/08 10:47:26;;;;;;;5.25;2.63;;;;;;;14.24;53.25;99697.91;4915047;29;20457;-60
2022/10/08 10:49:54;;;;;;;4.53;2.40;;;;;;;14.19;53.68;99692.53;4867123;29;20044;-62
2022/10/08 10:52:32;;;;;;;10.15;2.85;;;;;;;14.20;53.60;99693.31;4915476;29;20132;-60
2022/10/08 10:55:30;;;;;;;5.50;3.03;;;;;;;14.24;53.63;99684.56;4898327;29;20060;-62
2022/10/08 10:58:21;;;;;;;5.40;2.55;;;;;;;14.23;53.29;99687.47;4898666;29;20515;-62
2022/10/08 11:01:11;;;;;;;4.88;2.60;;;;;;;14.23;53.64;99677.63;4913994;29;20063;-61
2022/10/08 11:03:53;;;;;;;10.15;3.88;;;;;;;14.23;53.73;99677.63;4915392;29;20184;-61
2022/10/08 11:06:32;;;;;;;10.65;2.60;;;;;;;14.26;53.63;99678.97;4898177;29;20040;-62
2022/10/08 11:09:07;;;;;;;7.28;2.60;;;;;;;14.26;54.08;99678.97;4914972;29;20103;-61
2022/10/08 11:11:45;;;;;;;7.47;2.72;;;;;;;14.23;54.31;99674.16;4898254;29;20094;-62
2022/10/08 11:14:33;;;;;;;4.57;2.03;;;;;;;14.15;54.35;99661.28;4915232;29;20051;-62
2022/10/08 11:17:24;;;;;;;5.00;2.63;;;;;;;14.13;54.51;99668.75;4898221;29;20099;-61
2022/10/08 11:20:10;;;;;;;7.35;2.40;;;;;;;14.14;54.76;99665.81;4914420;29;20063;-60
2022/10/08 11:22:49;;;;;;;12.43;3.70;;;;;;;14.15;54.45;99659.44;4866710;29;20051;-62
2022/10/08 11:25:53;;;;;;;7.30;3.00;;;;;;;14.16;54.96;99658.38;4882619;29;20063;-61
2022/10/08 11:28:41;;;;;;;7.03;2.58;;;;;;;14.16;54.42;99657.56;4914461;29;20568;-62
2022/10/08 11:31:19;;;;;;;10.77;2.90;;;;;;;14.17;54.37;99651.19;4915623;29;20555;-61
2022/10/08 11:33:45;;;;;;;5.43;2.45;;;;;;;14.07;54.39;99635.91;4916186;29;20473;-60
2022/10/08 11:36:14;;;;;;;14.93;3.17;;;;;;;14.05;55.08;99641.47;4917034;29;20063;-61
2022/10/08 11:39:04;;;;;;;5.87;3.07;;;;;;;14.07;55.06;99638.56;4918517;29;20055;-62
2022/10/08 11:41:40;;;;;;;10.40;2.92;;;;;;;14.06;54.73;99642.31;4917002;29;20044;-62
2022/10/08 11:44:08;;;;;;;9.93;2.95;;;;;;;14.03;54.58;99637.47;4901301;29;20406;-62
2022/10/08 11:46:35;;;;;;;11.98;3.25;;;;;;;14.02;54.06;99631.31;4901467;29;20047;-61
2022/10/08 11:49:01;;;;;;;8.48;2.85;;;;;;;14.05;54.28;99636.16;4917947;29;20048;-60
2022/10/08 11:51:32;;;;;;;9.40;2.90;;;;;;;14.06;55.18;99628.97;4900929;29;20529;-62
2022/10/08 11:54:24;;;;;;;8.10;2.95;;;;;;;14.01;55.34;99628.94;4901455;29;20047;-62